Latest Weather Observations for Moss Vale

IDN60801

Issued at 4:03 am EST Friday 20 May 2022 (issued every 10 minutes, with the page automatically refreshed every 10 minutes)

About weather observations | Map of weather stations | Latest weather observations for NSW | Other Formats
Station Details ID: 068239 Name: MOSS VALE AWS Lat: -34.53 Lon: 150.42 Height: 678.4 m
Data from the previous 72 hours. | See also: Recent months at Moss Vale
Date/Time
EST
Temp
°C
App
Temp
°C
Dew
Point
°C
Rel
Hum
%
Delta-T
°C
Wind Press
QNH
hPa
Press
MSL
hPa
Rain since
9am
mm
Dir  Spd
km/h
Gust
km/h
Spd
kts
Gust
kts
20/04:00am 2.0 0.2 1.4 96 0.2 CALM 0 0 0 0 1030.2 1030.2 0.0
20/03:55am 1.7 -0.1 1.1 96 0.2 CALM 0 0 0 0 1030.1 1030.1 0.0
20/03:41am 1.6 -0.2 1.0 96 0.2 CALM 0 0 0 0 1030.0 1030.0 0.0
20/03:30am 1.4 -0.5 0.8 96 0.2 CALM 0 0 0 0 1029.9 1029.9 0.0
20/03:00am 1.5 -1.5 0.9 96 0.2 SSW 6 7 3 4 1030.0 1030.0 0.0
20/02:30am 1.9 0.1 1.5 97 0.2 CALM 0 0 0 0 1029.9 1029.9 0.0
20/02:12am 1.1 -1.9 0.7 97 0.2 SW 6 9 3 5 1029.8 1029.8 0.0
20/02:00am 1.3 -1.9 0.9 97 0.2 WSW 7 9 4 5 1029.7 1029.7 0.0
20/01:30am 1.0 -2.3 0.4 96 0.2 W 7 9 4 5 1029.9 1029.9 0.0
20/01:25am 1.1 -2.1 0.5 96 0.2 NW 7 9 4 5 1029.9 1029.9 0.0
20/01:00am 1.0 -0.9 0.4 96 0.2 CALM 0 0 0 0 1030.0 1030.0 0.0
20/12:30am 1.6 -0.2 1.0 96 0.2 CALM 0 0 0 0 1030.1 1030.1 0.0
20/12:00am 1.3 -0.6 0.6 95 0.3 CALM 0 0 0 0 1030.1 1030.1 0.0
 
Date/Time
EST
Temp
°C
App
Temp
°C
Dew
Point
°C
Rel
Hum
%
Delta-T
°C
Wind Press
QNH
hPa
Press
MSL
hPa
Rain since
9am
mm
Dir  Spd
km/h
Gust
km/h
Spd
kts
Gust
kts
19/11:58pm 1.5 -0.4 0.8 95 0.3 CALM 0 0 0 0 1030.1 1030.1 0.0
19/11:54pm 1.6 -0.2 0.9 95 0.3 CALM 0 0 0 0 1030.1 1030.1 0.0
19/11:33pm 1.8 0.0 1.1 95 0.3 CALM 0 0 0 0 1030.0 1030.0 0.0
19/11:30pm 1.9 0.1 1.2 95 0.3 CALM 0 0 0 0 1030.0 1030.0 0.0
19/11:00pm 2.2 0.1 1.5 95 0.3 N 2 6 1 3 1030.2 1030.2 0.0
19/10:30pm 2.1 0.3 1.1 93 0.4 CALM 0 0 0 0 1030.5 1030.4 0.0
19/10:25pm 2.2 0.4 1.0 92 0.5 CALM 0 0 0 0 1030.5 1030.4 0.0
19/10:00pm 3.1 1.4 2.1 93 0.4 CALM 0 0 0 0 1030.3 1030.3 0.0
19/09:30pm 3.5 1.1 2.2 91 0.5 NE 4 6 2 3 1030.1 1030.1 0.0
19/09:00pm 3.8 1.8 2.5 91 0.5 NE 2 7 1 4 1029.6 1029.6 0.0
19/08:30pm 4.1 1.2 2.6 90 0.6 NE 7 9 4 5 1029.6 1029.6 0.0
19/08:00pm 4.5 2.2 2.7 88 0.8 NE 4 6 2 3 1029.3 1029.3 0.0
19/07:30pm 4.5 1.6 2.7 88 0.8 NNE 7 9 4 5 1029.1 1029.0 0.0
19/07:00pm 5.7 3.1 3.0 83 1.2 NNE 6 7 3 4 1028.6 1028.6 0.0
19/06:30pm 6.9 4.3 3.2 77 1.6 NNE 6 7 3 4 1028.4 1028.4 0.0
19/06:00pm 6.8 4.0 3.4 79 1.5 NNE 7 9 4 5 1027.8 1027.7 0.0
19/05:30pm 7.5 4.9 3.0 73 2.0 E 6 9 3 5 1027.4 1027.3 0.0
19/05:00pm 8.0 4.4 2.7 69 2.3 SE 11 13 6 7 1026.8 1026.8 0.0
19/04:30pm 9.1 5.5 2.9 65 2.8 SE 11 13 6 7 1026.4 1026.3 0.0
19/04:00pm 10.1 6.5 2.7 60 3.3 SSE 11 15 6 8 1026.0 1025.9 0.0
19/03:30pm 11.9 8.9 1.8 50 4.5 SSW 7 9 4 5 1025.5 1025.5 0.0
19/03:00pm 13.4 10.6 3.2 50 4.7 SW 7 15 4 8 1025.3 1025.2 0.0
19/02:30pm 13.1 10.2 1.5 45 5.2 W 6 11 3 6 1025.2 1025.1 0.0
19/02:00pm 13.1 9.7 1.8 46 5.0 W 9 15 5 8 1025.0 1024.9 0.0
19/01:30pm 13.0 9.5 3.4 52 4.5 WSW 11 15 6 8 1025.0 1024.9 0.0
19/01:00pm 11.8 8.9 1.2 48 4.6 SSE 6 13 3 7 1025.0 1024.9 0.0
19/12:30pm 11.7 8.3 1.9 51 4.4 SSW 9 15 5 8 1025.2 1025.1 0.0
19/12:00pm 11.4 7.8 2.9 56 3.8 SSW 11 19 6 10 1025.5 1025.5 0.0
19/11:30am 10.6 7.2 1.9 55 3.8 SSW 9 15 5 8 1025.8 1025.7 0.0
19/11:00am 10.1 6.9 2.9 61 3.2 W 9 15 5 8 1025.9 1025.8 0.0
19/10:30am 9.7 6.1 5.1 73 2.2 W 13 19 7 10 1026.0 1025.9 0.0
19/10:00am 8.5 4.5 4.9 78 1.7 WSW 15 20 8 11 1026.1 1026.0 0.0
19/09:30am 7.1 2.6 4.1 81 1.3 WSW 17 22 9 12 1026.2 1026.1 0.0
19/09:00am 6.0 1.0 3.7 85 1.0 W 19 24 10 13 1026.0 1025.9 0.2
19/08:30am 5.0 1.0 2.9 86 0.9 W 13 20 7 11 1025.6 1025.6 0.0
19/08:00am 3.0 0.2 1.8 92 0.5 W 6 7 3 4 1025.2 1025.1 0.0
19/07:30am 2.0 -0.2 0.8 92 0.5 W 2 7 1 4 1025.0 1024.9 0.0
19/07:00am 2.0 -1.9 1.0 93 0.4 WNW 11 13 6 7 1024.7 1024.6 0.0
19/06:30am 1.7 -2.6 0.7 93 0.4 W 13 17 7 9 1024.4 1024.3 0.0
19/06:00am 1.7 -2.6 0.8 94 0.4 W 13 17 7 9 1024.2 1024.0 0.0
19/05:30am 1.6 -2.4 0.6 93 0.4 W 11 13 6 7 1023.7 1023.6 0.0
19/05:00am 1.4 -3.0 0.1 91 0.5 W 13 15 7 8 1023.4 1023.3 0.0
19/04:30am 2.1 -0.9 0.5 89 0.6 N 6 9 3 5 1023.5 1023.4 0.0
19/04:00am 2.7 -0.4 1.1 89 0.6 NW 7 9 4 5 1023.4 1023.3 0.0
19/03:30am 3.0 -0.9 1.2 88 0.7 WSW 11 15 6 8 1023.1 1023.0 0.0
19/03:00am 3.3 -1.0 1.3 87 0.8 SW 13 19 7 10 1022.8 1022.6 0.0
19/02:30am 3.5 0.0 1.2 85 0.9 WSW 9 15 5 8 1022.8 1022.6 0.0
19/02:00am 3.6 -0.6 1.6 87 0.8 W 13 20 7 11 1023.0 1022.9 0.0
19/01:30am 3.9 -0.6 1.9 87 0.8 W 15 19 8 10 1022.8 1022.6 0.0
19/01:00am 3.8 0.3 1.5 85 0.9 WSW 9 13 5 7 1022.8 1022.6 0.0
19/12:30am 4.2 0.8 1.7 84 1.0 WNW 9 13 5 7 1022.8 1022.6 0.0
19/12:00am 4.4 1.0 1.8 83 1.1 WSW 9 11 5 6 1022.6 1022.4 0.0
 
Date/Time
EST
Temp
°C
App
Temp
°C
Dew
Point
°C
Rel
Hum
%
Delta-T
°C
Wind Press
QNH
hPa
Press
MSL
hPa
Rain since
9am
mm
Dir  Spd
km/h
Gust
km/h
Spd
kts
Gust
kts
18/11:30pm 4.6 1.2 2.0 83 1.1 WSW 9 13 5 7 1022.7 1022.5 0.0
18/11:00pm 4.7 0.6 2.1 83 1.1 W 13 20 7 11 1022.6 1022.4 0.0
18/10:30pm 5.3 2.6 2.5 82 1.2 SW 6 9 3 5 1022.4 1022.3 0.0
18/10:00pm 5.8 1.8 2.8 81 1.3 WSW 13 20 7 11 1022.4 1022.3 0.0
18/09:30pm 6.3 2.0 3.1 80 1.4 W 15 19 8 10 1022.4 1022.3 0.0
18/09:00pm 6.7 1.5 3.3 79 1.5 W 20 30 11 16 1021.9 1021.8 0.0
18/08:30pm 7.0 1.7 3.1 76 1.7 WSW 20 33 11 18 1022.0 1021.9 0.0
18/08:00pm 7.3 1.2 3.0 74 1.9 WSW 24 35 13 19 1021.8 1021.7 0.0
18/07:30pm 7.3 1.7 3.4 76 1.7 WSW 22 33 12 18 1021.6 1021.4 0.0
18/07:00pm 7.4 2.4 3.6 77 1.7 WSW 19 26 10 14 1021.5 1021.3 0.0
18/06:30pm 8.1 2.6 3.9 75 1.9 WSW 22 32 12 17 1020.9 1020.8 0.0
18/06:00pm 8.6 2.3 4.0 73 2.1 WSW 26 37 14 20 1020.3 1020.1 0.0
18/05:33pm 8.9 2.3 4.1 72 2.2 WSW 28 46 15 25 1020.0 1019.8 0.0
18/05:30pm 8.9 3.1 4.3 73 2.1 WSW 24 46 13 25 1019.9 1019.7 0.0
18/05:00pm 9.8 4.0 4.6 70 2.4 WSW 24 35 13 19 1019.6 1019.4 0.0
18/04:33pm 10.9 4.4 4.6 65 3.0 SW 28 46 15 25 1019.2 1019.1 0.0
18/04:30pm 11.2 5.2 5.1 66 2.9 SW 26 43 14 23 1019.2 1019.1 0.0
18/04:00pm 12.0 5.1 4.5 60 3.5 W 30 43 16 23 1018.7 1018.5 0.0
18/03:30pm 11.2 4.7 4.7 64 3.1 WSW 28 37 15 20 1018.5 1018.3 0.0
18/03:00pm 12.8 6.7 5.0 59 3.7 WSW 26 39 14 21 1018.1 1017.9 0.0
18/02:30pm 13.1 5.9 4.8 57 4.0 W 32 50 17 27 1017.9 1017.7 0.0
18/02:06pm 12.4 5.1 4.6 59 3.7 W 32 54 17 29 1017.7 1017.5 0.0
18/02:00pm 12.8 6.1 5.5 61 3.5 W 30 41 16 22 1018.0 1017.8 0.0
18/01:30pm 11.8 3.1 4.3 60 3.5 W 39 61 21 33 1018.0 1017.8 0.0
18/01:00pm 12.4 4.3 5.3 62 3.4 W 37 56 20 30 1018.1 1017.9 0.0
18/12:30pm 12.1 4.7 5.0 62 3.4 WSW 33 54 18 29 1018.4 1018.2 0.0
18/12:04pm 11.2 3.7 4.7 64 3.1 W 33 52 18 28 1018.7 1018.5 0.0
18/12:00pm 11.2 3.5 5.3 67 2.8 W 35 48 19 26 1018.8 1018.6 0.0
18/11:30am 12.1 3.5 4.8 61 3.5 W 39 50 21 27 1018.9 1018.7 0.0
18/11:19am 12.0 5.1 4.5 60 3.5 W 30 54 16 29 1019.0 1018.8 0.0
18/11:00am 12.5 6.0 4.5 58 3.8 W 28 41 15 22 1019.3 1019.2 0.0
18/10:30am 11.6 3.3 4.1 60 3.5 WSW 37 57 20 31 1019.3 1019.2 0.0
18/10:00am 11.1 3.4 3.2 58 3.6 WSW 33 54 18 29 1019.3 1019.2 0.0
18/09:41am 10.6 2.4 2.9 59 3.5 WSW 35 61 19 33 1019.2 1019.1 0.0
18/09:30am 10.3 1.4 3.1 61 3.2 W 39 54 21 29 1019.3 1019.2 0.0
18/09:00am 9.6 2.1 3.6 66 2.7 W 32 50 17 27 1019.5 1019.3 0.0
18/08:51am 9.3 1.8 3.3 66 2.7 W 32 50 17 27 1019.2 1019.1 0.0
18/08:30am 8.7 1.1 3.1 68 2.5 W 32 46 17 25 1019.2 1019.1 0.0
18/08:14am 8.4 1.2 3.1 69 2.4 W 30 48 16 26 1019.0 1018.8 0.0
18/08:00am 7.9 1.0 2.6 69 2.3 W 28 43 15 23 1018.7 1018.5 0.0
18/07:30am 6.9 0.4 2.6 74 1.9 W 26 35 14 19 1018.5 1018.3 0.0
18/07:00am 6.4 0.6 2.5 76 1.7 W 22 32 12 17 1018.5 1018.3 0.0
18/06:30am 6.0 0.2 2.3 77 1.6 W 22 30 12 16 1018.4 1018.2 0.0
18/06:00am 6.3 0.2 2.6 77 1.6 W 24 35 13 19 1018.6 1018.4 0.0
18/05:30am 6.2 0.1 2.7 78 1.5 W 24 30 13 16 1018.4 1018.2 0.0
18/05:00am 6.2 0.8 2.7 78 1.5 W 20 28 11 15 1018.4 1018.2 0.0
18/04:30am 6.7 0.2 2.8 76 1.7 W 26 35 14 19 1018.3 1018.1 0.0
18/04:00am 6.7 -0.5 3.1 78 1.6 W 30 41 16 22 1017.9 1017.7 0.0
18/03:30am 6.8 0.1 3.4 79 1.5 W 28 37 15 20 1017.7 1017.5 0.0
18/03:00am 6.7 -0.1 3.1 78 1.6 W 28 37 15 20 1017.6 1017.4 0.0
18/02:30am 6.9 -0.2 3.3 78 1.6 W 30 46 16 25 1017.6 1017.4 0.0
18/02:00am 6.7 -0.1 3.0 77 1.6 W 28 41 15 22 1018.1 1017.9 0.0
18/01:30am 7.0 -0.2 3.1 76 1.7 W 30 41 16 22 1018.3 1018.1 0.0
18/01:00am 7.0 -0.2 3.1 76 1.7 W 30 41 16 22 1018.4 1018.2 0.0
18/12:30am 7.2 -0.9 3.1 75 1.8 W 35 50 19 27 1018.2 1018.0 0.0
18/12:00am 7.0 -0.5 3.3 77 1.6 W 32 46 17 25 1018.3 1018.1 0.0
 
Date/Time
EST
Temp
°C
App
Temp
°C
Dew
Point
°C
Rel
Hum
%
Delta-T
°C
Wind Press
QNH
hPa
Press
MSL
hPa
Rain since
9am
mm
Dir  Spd
km/h
Gust
km/h
Spd
kts
Gust
kts
17/11:30pm 7.1 0.0 3.3 77 1.7 W 30 41 16 22 1018.4 1018.2 0.0
17/11:00pm 7.0 0.6 3.1 76 1.7 W 26 41 14 22 1018.8 1018.6 0.0
17/10:30pm 6.7 1.0 3.1 78 1.6 W 22 30 12 16 1019.1 1019.0 0.0
17/10:00pm 6.7 1.4 3.1 78 1.6 W 20 32 11 17 1019.5 1019.3 0.0
17/09:30pm 6.6 1.5 3.0 78 1.6 W 19 30 10 16 1019.6 1019.4 0.0
17/09:00pm 7.0 1.9 3.3 77 1.6 W 19 28 10 15 1019.6 1019.4 0.0
17/08:30pm 6.9 2.2 3.3 78 1.6 W 17 22 9 12 1019.6 1019.4 0.0
17/08:00pm 7.1 2.4 3.3 77 1.7 W 17 22 9 12 1019.5 1019.3 0.0
17/07:30pm 7.3 3.0 3.2 75 1.8 W 15 20 8 11 1019.3 1019.2 0.0
17/07:00pm 8.0 3.4 3.5 73 2.0 W 17 28 9 15 1019.0 1018.8 0.0
17/06:30pm 7.9 3.3 3.6 74 1.9 W 17 26 9 14 1019.0 1018.8 0.0
17/06:00pm 8.5 3.9 3.6 71 2.2 W 17 28 9 15 1018.7 1018.5 0.0
17/05:30pm 8.5 4.3 3.6 71 2.2 WSW 15 20 8 11 1018.5 1018.3 0.0
17/05:00pm 9.7 4.5 3.4 65 2.8 W 20 28 11 15 1018.3 1018.1 0.0
17/04:30pm 11.3 4.6 3.6 59 3.5 W 28 37 15 20 1018.3 1018.1 0.0
17/04:00pm 12.1 5.3 3.3 55 4.0 W 28 39 15 21 1018.1 1017.9 0.0
17/03:30pm 12.8 6.2 4.3 56 4.0 W 28 39 15 21 1018.0 1017.8 0.0
17/03:00pm 13.6 8.2 4.7 55 4.3 W 22 32 12 17 1018.0 1017.8 0.0
17/02:30pm 13.8 7.8 3.6 50 4.8 WSW 24 35 13 19 1018.2 1018.0 0.0
17/02:00pm 13.8 7.0 3.3 49 4.9 W 28 37 15 20 1018.0 1017.8 0.0
17/01:30pm 13.7 7.0 3.8 51 4.7 W 28 39 15 21 1018.2 1018.0 0.0
17/01:00pm 13.8 7.1 3.9 51 4.7 W 28 39 15 21 1018.1 1017.9 0.0
17/12:30pm 13.8 6.9 4.4 53 4.5 W 30 41 16 22 1018.5 1018.3 0.0
17/12:00pm 13.3 6.6 3.7 52 4.5 W 28 39 15 21 1018.7 1018.5 0.0
17/11:30am 12.6 5.1 3.6 54 4.2 W 32 43 17 23 1019.1 1019.0 0.0
17/11:00am 12.5 6.0 4.7 59 3.7 W 28 35 15 19 1019.7 1019.5 0.0
17/10:30am 11.7 5.1 4.0 59 3.6 WSW 28 37 15 20 1020.2 1020.0 0.0
17/10:06am 11.4 4.7 3.9 60 3.5 WSW 28 46 15 25 1020.2 1020.0 0.0
17/10:00am 11.5 5.7 4.3 61 3.4 WSW 24 32 13 17 1020.2 1020.0 0.0
17/09:30am 10.9 5.6 5.2 68 2.7 WSW 22 30 12 16 1020.1 1019.9 0.0
17/09:00am 10.0 5.3 5.0 71 2.3 W 19 28 10 15 1020.2 1020.0 0.0
17/08:30am 9.1 4.9 5.5 78 1.7 W 17 22 9 12 1020.1 1019.9 0.0
17/08:00am 8.3 5.2 5.6 83 1.3 W 11 17 6 9 1019.9 1019.7 0.0
17/07:30am 7.0 4.2 5.2 88 0.8 WSW 9 11 5 6 1019.6 1019.4 0.0
17/07:00am 6.3 3.0 4.8 90 0.7 WSW 11 15 6 8 1019.0 1018.8 0.0
17/06:30am 6.5 2.9 5.0 90 0.7 W 13 15 7 8 1018.8 1018.6 0.0
17/06:00am 7.0 4.3 5.5 90 0.7 WSW 9 11 5 6 1018.6 1018.4 0.0
17/05:30am 7.1 4.4 5.4 89 0.8 SW 9 13 5 7 1018.1 1017.9 0.0
17/05:00am 7.3 4.5 5.3 87 0.9 SSW 9 13 5 7 1017.6 1017.4 0.0
17/04:30am 7.6 4.9 5.6 87 0.9 SW 9 11 5 6 1017.3 1017.1 0.0

Other formats

Comma delimited format used in spreadsheet applications
http://www.bom.gov.au/fwo/IDN60801/IDN60801.94746.axf

JavaScript Object Notation format (JSON) in row-major order
http://www.bom.gov.au/fwo/IDN60801/IDN60801.94746.json

Data quality

Most of these data are generated automatically and are frequently updated. Quality checks on data are not normally performed. It is possible for incorrect values to appear. Refer to information at About Latest Weather Observations and please check the disclaimer before using these data.